createdAt,value
2023-05-06T00:00:56.908Z,100425.91
2023-05-06T00:03:59.991Z,100414.38
2023-05-06T00:07:02.919Z,100424.84
2023-05-06T00:10:06.705Z,100421.78
2023-05-06T00:13:09.590Z,100412.34
2023-05-06T00:16:12.846Z,100425.88
2023-05-06T00:19:15.675Z,100419.44
2023-05-06T00:22:18.831Z,100409.59
2023-05-06T00:25:21.897Z,100415.56
2023-05-06T00:28:25.521Z,100408.06
2023-05-06T00:31:28.422Z,100401.53
2023-05-06T00:34:31.490Z,100403.16
2023-05-06T00:37:34.153Z,100395.69
2023-05-06T00:40:37.424Z,100386.06
2023-05-06T00:43:40.219Z,100383.59
2023-05-06T00:46:43.999Z,100384.94
2023-05-06T00:49:47.242Z,100372.53
2023-05-06T00:52:51.120Z,100373.41
2023-05-06T00:55:54.299Z,100378.28
2023-05-06T00:58:58.013Z,100369.06
2023-05-06T01:02:01.231Z,100369.78
2023-05-06T01:05:05.890Z,100376.09
2023-05-06T01:08:25.635Z,100374.62
2023-05-06T01:11:38.868Z,100380.22
2023-05-06T01:14:55.987Z,100383.37
2023-05-06T01:18:01.134Z,100383.72
2023-05-06T01:21:05.634Z,100382.63
2023-05-06T01:24:09.032Z,100382.63
2023-05-06T01:27:14.072Z,100391.78
2023-05-06T01:30:19.891Z,100393.41
2023-05-06T01:33:48.553Z,100390.19
2023-05-06T01:37:22.487Z,100389.00
2023-05-06T01:40:27.483Z,100391.09
2023-05-06T01:43:38.412Z,100389.09
2023-05-06T01:46:43.138Z,100395.91
2023-05-06T01:49:48.251Z,100394.94
2023-05-06T01:53:01.469Z,100398.78
2023-05-06T01:56:05.428Z,100394.62
2023-05-06T01:59:08.116Z,100404.09
2023-05-06T02:02:11.501Z,100401.94
2023-05-06T02:05:14.498Z,100405.00
2023-05-06T02:08:18.229Z,100401.06
2023-05-06T02:11:21.520Z,100402.28
2023-05-06T02:14:24.993Z,100406.84
2023-05-06T02:17:28.504Z,100412.56
2023-05-06T02:20:32.114Z,100406.50
2023-05-06T02:23:35.296Z,100394.31
2023-05-06T02:26:38.325Z,100392.13
2023-05-06T02:29:40.970Z,100394.56
2023-05-06T02:32:44.111Z,100394.94
2023-05-06T02:35:46.915Z,100392.13
2023-05-06T02:38:52.527Z,100380.59
2023-05-06T02:41:55.250Z,100379.41
2023-05-06T02:44:58.283Z,100377.31
2023-05-06T02:48:01.051Z,100375.16
2023-05-06T02:51:06.465Z,100371.56
2023-05-06T02:54:09.248Z,100365.44
2023-05-06T02:57:12.373Z,100365.22
2023-05-06T03:00:15.717Z,100366.19
2023-05-06T03:03:18.897Z,100360.53
2023-05-06T03:06:21.941Z,100363.41
2023-05-06T03:09:25.007Z,100365.13
2023-05-06T03:12:27.903Z,100372.94
2023-05-06T03:15:32.744Z,100380.06
2023-05-06T03:18:35.469Z,100385.97
2023-05-06T03:21:39.091Z,100390.09
2023-05-06T03:24:41.890Z,100392.44
2023-05-06T03:27:45.034Z,100399.53
2023-05-06T03:30:48.817Z,100402.22
2023-05-06T03:33:52.754Z,100402.91
2023-05-06T03:36:56.281Z,100393.50
2023-05-06T03:40:04.064Z,100384.59
2023-05-06T03:43:07.393Z,100397.06
2023-05-06T03:46:11.547Z,100390.22
2023-05-06T03:49:15.584Z,100394.06
2023-05-06T03:52:20.042Z,100394.41
2023-05-06T03:55:23.153Z,100404.03
2023-05-06T03:58:26.566Z,100407.63
2023-05-06T04:01:29.351Z,100401.62
2023-05-06T04:04:32.702Z,100406.37
2023-05-06T04:07:35.436Z,100404.97
2023-05-06T04:10:41.944Z,100413.34
2023-05-06T04:13:45.861Z,100406.87
2023-05-06T04:16:49.541Z,100411.69
2023-05-06T04:19:54.015Z,100408.22
2023-05-06T04:22:57.498Z,100402.34
2023-05-06T04:26:01.451Z,100398.06
2023-05-06T04:29:05.200Z,100404.56
2023-05-06T04:32:10.496Z,100406.91
2023-05-06T04:35:13.860Z,100409.91
2023-05-06T04:38:17.738Z,100414.34
2023-05-06T04:41:20.987Z,100411.13
2023-05-06T04:44:23.934Z,100398.28
2023-05-06T04:47:28.094Z,100395.28
2023-05-06T04:50:30.982Z,100397.50
2023-05-06T04:53:34.209Z,100398.56
2023-05-06T04:56:37.141Z,100390.63
2023-05-06T04:59:42.773Z,100398.12
2023-05-06T05:02:47.108Z,100392.13
2023-05-06T05:05:50.904Z,100388.34
2023-05-06T05:08:55.417Z,100388.94
2023-05-06T05:11:59.240Z,100382.00
2023-05-06T05:15:02.486Z,100377.78
2023-05-06T05:18:06.379Z,100393.81
2023-05-06T05:21:10.307Z,100386.28
2023-05-06T05:24:13.592Z,100387.88
2023-05-06T05:27:16.628Z,100378.16
2023-05-06T05:30:20.262Z,100378.16
2023-05-06T05:33:23.573Z,100389.37
2023-05-06T05:36:27.811Z,100384.94
2023-05-06T05:39:31.072Z,100382.13
2023-05-06T05:42:34.675Z,100383.69
2023-05-06T05:45:38.283Z,100379.25
2023-05-06T05:48:42.128Z,100381.25
2023-05-06T05:51:46.226Z,100377.59
2023-05-06T05:54:51.576Z,100379.53
2023-05-06T05:57:55.164Z,100382.75
2023-05-06T06:00:58.888Z,100380.63
2023-05-06T06:04:02.968Z,100380.59
2023-05-06T06:07:06.161Z,100376.78
2023-05-06T06:10:10.253Z,100379.91
2023-05-06T06:13:13.611Z,100386.63
2023-05-06T06:16:17.423Z,100388.47
2023-05-06T06:19:20.596Z,100384.00
2023-05-06T06:22:24.482Z,100383.59
2023-05-06T06:25:27.767Z,100384.91
2023-05-06T06:28:31.498Z,100392.75
2023-05-06T06:31:35.079Z,100386.25
2023-05-06T06:34:38.125Z,100388.94
2023-05-06T06:37:40.818Z,100393.75
2023-05-06T06:40:44.002Z,100394.69
2023-05-06T06:43:46.730Z,100399.63
2023-05-06T06:46:50.632Z,100399.53
2023-05-06T06:49:54.109Z,100394.09
2023-05-06T06:52:57.207Z,100397.78
2023-05-06T06:55:59.911Z,100386.06
2023-05-06T06:59:02.849Z,100391.84
2023-05-06T07:02:05.767Z,100395.47
2023-05-06T07:05:09.540Z,100401.53
2023-05-06T07:08:12.590Z,100394.13
2023-05-06T07:11:15.795Z,100388.56
2023-05-06T07:14:18.421Z,100389.34
2023-05-06T07:17:21.647Z,100387.38
2023-05-06T07:20:24.339Z,100384.88
2023-05-06T07:23:32.019Z,100391.22
2023-05-06T07:26:38.531Z,100384.09
2023-05-06T07:29:41.572Z,100389.28
2023-05-06T07:32:44.229Z,100387.75
2023-05-06T07:35:47.198Z,100379.03
2023-05-06T07:38:50.747Z,100379.09
2023-05-06T07:41:53.885Z,100381.84
2023-05-06T07:44:56.659Z,100379.69
2023-05-06T07:47:59.747Z,100384.56
2023-05-06T07:51:03.421Z,100378.41
2023-05-06T07:54:06.574Z,100383.88
2023-05-06T07:57:09.527Z,100389.87
2023-05-06T08:00:13.110Z,100390.50
2023-05-06T08:03:17.209Z,100397.19
2023-05-06T08:06:20.452Z,100391.97
2023-05-06T08:09:23.426Z,100398.59
2023-05-06T08:12:26.467Z,100393.94
2023-05-06T08:15:29.282Z,100385.47
2023-05-06T08:18:32.763Z,100388.75
2023-05-06T08:21:35.707Z,100397.53
2023-05-06T08:24:38.721Z,100394.91
2023-05-06T08:27:41.365Z,100395.19
2023-05-06T08:30:47.855Z,100400.44
2023-05-06T08:33:53.072Z,100397.91
2023-05-06T08:36:57.509Z,100389.53
2023-05-06T08:40:00.210Z,100401.97
2023-05-06T08:43:05.540Z,100397.56
2023-05-06T08:46:09.053Z,100393.03
2023-05-06T08:49:12.169Z,100397.78
2023-05-06T08:52:15.381Z,100393.13
2023-05-06T08:55:19.562Z,100400.06
2023-05-06T08:58:24.949Z,100392.34
2023-05-06T09:01:29.257Z,100395.06
2023-05-06T09:04:32.076Z,100387.69
2023-05-06T09:07:35.224Z,100395.06
2023-05-06T09:10:45.140Z,100388.94
2023-05-06T09:13:48.270Z,100387.34
2023-05-06T09:16:53.540Z,100389.09
2023-05-06T09:19:57.738Z,100381.62
2023-05-06T09:23:01.739Z,100388.72
2023-05-06T09:26:05.670Z,100377.53
2023-05-06T09:29:08.720Z,100382.38
2023-05-06T09:32:14.737Z,100380.03
2023-05-06T09:35:17.682Z,100377.78
2023-05-06T09:38:21.954Z,100371.50
2023-05-06T09:41:25.767Z,100374.16
2023-05-06T09:44:29.527Z,100367.84
2023-05-06T09:47:35.887Z,100362.13
2023-05-06T09:50:39.604Z,100362.97
2023-05-06T09:53:44.693Z,100354.66
2023-05-06T09:56:48.469Z,100350.00
2023-05-06T09:59:54.338Z,100347.50
2023-05-06T10:02:59.546Z,100346.38
2023-05-06T10:06:06.312Z,100341.66
2023-05-06T10:09:10.641Z,100352.81
2023-05-06T10:12:14.157Z,100351.94
2023-05-06T10:15:17.076Z,100348.59
2023-05-06T10:18:22.149Z,100354.12
2023-05-06T10:21:28.046Z,100352.25
2023-05-06T10:24:37.190Z,100343.75
2023-05-06T10:27:43.989Z,100345.22
2023-05-06T10:30:49.651Z,100337.44
2023-05-06T10:33:54.887Z,100342.97
2023-05-06T10:37:00.394Z,100337.00
2023-05-06T10:40:04.927Z,100337.12
2023-05-06T10:43:21.426Z,100336.00
2023-05-06T10:46:26.556Z,100330.94
2023-05-06T10:49:29.994Z,100335.09
2023-05-06T10:52:46.749Z,100339.03
2023-05-06T10:56:09.599Z,100344.72
2023-05-06T10:59:13.210Z,100341.56
2023-05-06T11:02:20.430Z,100348.47
2023-05-06T11:05:24.284Z,100343.41
2023-05-06T11:08:27.688Z,100346.53
2023-05-06T11:11:49.240Z,100347.50
2023-05-06T11:14:52.336Z,100341.09
2023-05-06T11:17:59.709Z,100350.13
2023-05-06T11:21:02.985Z,100349.66
2023-05-06T11:24:06.836Z,100360.59
2023-05-06T11:27:11.335Z,100360.00
2023-05-06T11:30:15.271Z,100367.69
2023-05-06T11:33:21.849Z,100371.63
2023-05-06T11:36:24.408Z,100374.44
2023-05-06T11:39:39.324Z,100370.19
2023-05-06T11:42:43.327Z,100383.91
2023-05-06T11:45:50.488Z,100383.19
2023-05-06T11:48:53.145Z,100387.41
2023-05-06T11:51:57.416Z,100395.75
2023-05-06T11:55:00.163Z,100397.69
2023-05-06T11:58:03.207Z,100410.94
2023-05-06T12:01:05.947Z,100428.78
2023-05-06T12:04:09.464Z,100427.47
2023-05-06T12:07:14.389Z,100445.12
2023-05-06T12:10:18.335Z,100445.84
2023-05-06T12:13:23.490Z,100454.59
2023-05-06T12:16:27.287Z,100458.09
2023-05-06T12:19:31.768Z,100458.31
2023-05-06T12:22:35.343Z,100449.19
2023-05-06T12:25:39.824Z,100449.66
2023-05-06T12:28:44.082Z,100448.03
2023-05-06T12:31:48.256Z,100448.06
2023-05-06T12:34:51.399Z,100442.94
2023-05-06T12:37:54.153Z,100421.13
2023-05-06T12:40:57.413Z,100407.53
2023-05-06T12:44:00.178Z,100401.53
2023-05-06T12:47:08.034Z,100394.66
2023-05-06T12:50:11.123Z,100394.53
2023-05-06T12:53:14.317Z,100384.16
2023-05-06T12:56:17.242Z,100378.81
2023-05-06T12:59:20.536Z,100362.44
2023-05-06T13:02:23.256Z,100357.69
2023-05-06T13:05:26.394Z,100354.31
2023-05-06T13:08:29.715Z,100361.81
2023-05-06T13:11:32.719Z,100355.66
2023-05-06T13:14:37.729Z,100356.09
2023-05-06T13:17:42.299Z,100343.41
2023-05-06T13:20:47.068Z,100347.69
2023-05-06T13:23:50.145Z,100347.44
2023-05-06T13:26:53.103Z,100336.06
2023-05-06T13:29:56.104Z,100327.16
2023-05-06T13:32:58.956Z,100336.78
2023-05-06T13:36:04.583Z,100322.91
2023-05-06T13:39:11.896Z,100323.84
2023-05-06T13:42:14.977Z,100314.53
2023-05-06T13:45:17.813Z,100319.53
2023-05-06T13:48:20.954Z,100321.81
2023-05-06T13:51:24.052Z,100313.94
2023-05-06T13:54:27.150Z,100306.66
2023-05-06T13:57:29.859Z,100307.59
2023-05-06T14:00:34.549Z,100306.88
2023-05-06T14:03:37.628Z,100304.31
2023-05-06T14:06:43.599Z,100299.09
2023-05-06T14:09:46.691Z,100291.84
2023-05-06T14:12:49.526Z,100289.75
2023-05-06T14:15:54.408Z,100286.47
2023-05-06T14:18:57.145Z,100278.59
2023-05-06T14:22:00.202Z,100267.19
2023-05-06T14:25:03.011Z,100260.06
2023-05-06T14:28:11.040Z,100267.75
2023-05-06T14:31:13.840Z,100269.25
2023-05-06T14:34:17.244Z,100268.03
2023-05-06T14:37:19.930Z,100270.63
2023-05-06T14:40:23.051Z,100277.06
2023-05-06T14:43:25.893Z,100271.09
2023-05-06T14:46:29.777Z,100277.19
2023-05-06T14:49:32.602Z,100280.72
2023-05-06T14:52:36.608Z,100274.87
2023-05-06T14:55:41.644Z,100273.94
2023-05-06T14:58:44.722Z,100264.75
2023-05-06T15:01:47.389Z,100272.78
2023-05-06T15:04:50.905Z,100262.97
2023-05-06T15:07:55.131Z,100259.44
2023-05-06T15:10:58.155Z,100254.81
2023-05-06T15:14:00.864Z,100256.94
2023-05-06T15:17:03.944Z,100258.66
2023-05-06T15:20:08.931Z,100255.31
2023-05-06T15:23:11.918Z,100252.22
2023-05-06T15:26:14.743Z,100255.13
2023-05-06T15:29:20.725Z,100254.69
2023-05-06T15:32:23.696Z,100242.38
2023-05-06T15:35:27.372Z,100236.22
2023-05-06T15:38:53.352Z,100240.97
2023-05-06T15:41:59.881Z,100242.91
2023-05-06T15:45:02.612Z,100247.84
2023-05-06T15:48:05.690Z,100240.63
2023-05-06T15:51:08.605Z,100237.72
2023-05-06T15:54:11.575Z,100240.78
2023-05-06T15:57:15.221Z,100248.34
2023-05-06T16:00:18.417Z,100258.66
2023-05-06T16:03:21.750Z,100266.16
2023-05-06T16:06:24.947Z,100272.47
2023-05-06T16:09:28.040Z,100270.19
2023-05-06T16:12:32.809Z,100272.56
2023-05-06T16:15:35.916Z,100278.28
2023-05-06T16:18:38.611Z,100279.69
2023-05-06T16:21:41.544Z,100290.66
2023-05-06T16:24:44.358Z,100286.19
2023-05-06T16:27:47.419Z,100283.75
2023-05-06T16:30:50.076Z,100292.53
2023-05-06T16:33:53.168Z,100297.38
2023-05-06T16:36:57.365Z,100297.19
2023-05-06T16:40:00.907Z,100296.62
2023-05-06T16:43:03.575Z,100305.69
2023-05-06T16:46:06.781Z,100306.66
2023-05-06T16:49:09.704Z,100308.75
2023-05-06T16:52:13.077Z,100301.63
2023-05-06T16:55:16.006Z,100290.03
2023-05-06T16:58:19.676Z,100288.97
2023-05-06T17:01:22.367Z,100284.19
2023-05-06T17:04:25.496Z,100270.00
2023-05-06T17:07:28.200Z,100267.41
2023-05-06T17:10:31.257Z,100258.69
2023-05-06T17:13:34.693Z,100255.88
2023-05-06T17:16:39.018Z,100267.34
2023-05-06T17:19:41.955Z,100258.59
2023-05-06T17:22:44.974Z,100257.44
2023-05-06T17:25:47.600Z,100262.91
2023-05-06T17:28:51.351Z,100269.84
2023-05-06T17:31:54.181Z,100272.66
2023-05-06T17:34:57.252Z,100270.03
2023-05-06T17:38:00.008Z,100269.66
2023-05-06T17:41:03.106Z,100274.09
2023-05-06T17:44:06.888Z,100296.25
2023-05-06T17:47:10.514Z,100294.53
2023-05-06T17:50:13.327Z,100300.91
2023-05-06T17:53:16.463Z,100299.38
2023-05-06T17:56:20.520Z,100303.34
2023-05-06T17:59:25.624Z,100286.69
2023-05-06T18:02:29.122Z,100289.28
2023-05-06T18:05:32.339Z,100280.84
2023-05-06T18:08:35.381Z,100285.50
2023-05-06T18:11:39.415Z,100279.94
2023-05-06T18:14:45.212Z,100286.69
2023-05-06T18:17:48.234Z,100294.31
2023-05-06T18:20:51.410Z,100308.84
2023-05-06T18:24:01.906Z,100327.38
2023-05-06T18:27:08.481Z,100331.16
2023-05-06T18:30:11.868Z,100330.88
2023-05-06T18:33:14.686Z,100329.75
2023-05-06T18:36:18.045Z,100340.69
2023-05-06T18:39:23.722Z,100346.03
2023-05-06T18:42:27.910Z,100360.53
2023-05-06T18:45:30.947Z,100363.47
2023-05-06T18:48:34.153Z,100356.38
2023-05-06T18:51:37.068Z,100366.50
2023-05-06T18:54:41.241Z,100356.97
2023-05-06T18:57:44.432Z,100355.81
2023-05-06T19:00:47.493Z,100348.25
2023-05-06T19:03:50.332Z,100338.25
2023-05-06T19:06:53.498Z,100349.44
2023-05-06T19:09:56.337Z,100339.84
2023-05-06T19:12:59.396Z,100334.25
2023-05-06T19:16:02.194Z,100349.84
2023-05-06T19:19:08.534Z,100350.28
2023-05-06T19:22:11.281Z,100347.06
2023-05-06T19:25:14.622Z,100352.66
2023-05-06T19:28:17.375Z,100362.25
2023-05-06T19:31:21.212Z,100337.47
2023-05-06T19:34:24.023Z,100337.06
2023-05-06T19:37:30.291Z,100341.47
2023-05-06T19:40:35.278Z,100335.37
2023-05-06T19:43:45.064Z,100334.94
2023-05-06T19:46:52.378Z,100333.34
2023-05-06T19:49:56.036Z,100329.72
2023-05-06T19:52:58.889Z,100332.63
2023-05-06T19:56:12.811Z,100325.00
2023-05-06T19:59:17.672Z,100325.03
2023-05-06T20:02:21.207Z,100320.59
2023-05-06T20:05:25.274Z,100327.75
2023-05-06T20:08:28.713Z,100336.56
2023-05-06T20:11:32.121Z,100333.44
2023-05-06T20:14:35.116Z,100335.47
2023-05-06T20:17:40.776Z,100339.09
2023-05-06T20:20:44.310Z,100337.56
2023-05-06T20:23:47.410Z,100341.56
2023-05-06T20:26:50.740Z,100334.38
2023-05-06T20:29:53.656Z,100328.41
2023-05-06T20:32:56.844Z,100321.63
2023-05-06T20:35:59.914Z,100319.22
2023-05-06T20:39:03.086Z,100322.41
2023-05-06T20:42:06.529Z,100325.59
2023-05-06T20:45:10.153Z,100324.78
2023-05-06T20:48:14.953Z,100332.37
2023-05-06T20:51:18.246Z,100320.44
2023-05-06T20:54:21.193Z,100333.59
2023-05-06T20:57:23.874Z,100326.41
2023-05-06T21:00:26.984Z,100328.81
2023-05-06T21:03:30.627Z,100335.19
2023-05-06T21:06:33.771Z,100336.38
2023-05-06T21:09:38.272Z,100338.37
2023-05-06T21:12:47.864Z,100341.16
2023-05-06T21:15:50.758Z,100383.47
2023-05-06T21:18:53.806Z,100343.50
2023-05-06T21:21:56.968Z,100375.06
2023-05-06T21:24:59.967Z,100379.03
2023-05-06T21:28:06.768Z,100375.06
2023-05-06T21:31:09.739Z,100375.44
2023-05-06T21:34:12.636Z,100373.06
2023-05-06T21:37:15.578Z,100383.88
2023-05-06T21:40:18.507Z,100379.87
2023-05-06T21:43:21.708Z,100372.31
2023-05-06T21:46:24.634Z,100368.28
2023-05-06T21:49:27.791Z,100364.72
2023-05-06T21:52:31.195Z,100357.53
2023-05-06T21:55:34.204Z,100355.50
2023-05-06T21:58:37.016Z,100352.72
2023-05-06T22:01:40.266Z,100352.69
2023-05-06T22:04:43.639Z,100351.12
2023-05-06T22:07:46.508Z,100349.53
2023-05-06T22:10:49.535Z,100350.75
2023-05-06T22:13:52.337Z,100364.69
2023-05-06T22:16:55.401Z,100355.94
2023-05-06T22:19:58.340Z,100360.31
2023-05-06T22:23:01.997Z,100352.34
2023-05-06T22:26:05.422Z,100343.53
2023-05-06T22:29:08.746Z,100351.12
2023-05-06T22:32:11.469Z,100354.31
2023-05-06T22:35:14.526Z,100350.72
2023-05-06T22:38:17.619Z,100348.34
2023-05-06T22:41:21.573Z,100349.53
2023-05-06T22:44:24.660Z,100357.91
2023-05-06T22:47:27.749Z,100366.69
2023-05-06T22:50:30.410Z,100360.72
2023-05-06T22:53:33.616Z,100359.94
2023-05-06T22:56:36.274Z,100365.09
2023-05-06T22:59:39.230Z,100360.31
2023-05-06T23:02:42.088Z,100366.28
2023-05-06T23:05:45.958Z,100360.28
2023-05-06T23:08:48.634Z,100351.94
2023-05-06T23:11:51.670Z,100347.16
2023-05-06T23:14:54.503Z,100349.56
2023-05-06T23:17:57.509Z,100341.16
2023-05-06T23:21:00.353Z,100346.38
2023-05-06T23:24:03.496Z,100345.53
2023-05-06T23:27:06.194Z,100355.50
2023-05-06T23:30:10.755Z,100351.53
2023-05-06T23:33:13.423Z,100346.72
2023-05-06T23:36:17.379Z,100346.31
2023-05-06T23:39:19.975Z,100338.34
2023-05-06T23:42:24.363Z,100342.22
2023-05-06T23:45:29.058Z,100342.28
2023-05-06T23:48:33.578Z,100337.53
2023-05-06T23:51:36.450Z,100343.84
2023-05-06T23:54:39.478Z,100339.00
2023-05-06T23:57:42.229Z,100345.78
